Chemical Hunter — H8QG — position and weather

sailwx.info

Track history (hours):
 
Tides and Currents Weather Stations Pressure Air Temp Water Temp Dewpoint Dewpoint Depression Visibility Wind Speed Wind Dir Waves Ship Positions

Chemical Hunter

Last reported at 2018-Feb-19 14:34 UTC. Time now 2018-Feb-24 06:22 UTC.
Position N 25°46' W 079°28'.

Length 134 m; draft 8.3 m.

Type: Ship (hazmat cat B). MMSI: 374026000.

Date/timePositionNaut miles runAvg speedWind from/ knotsBaromVisibWave heightAir tempDewpointWater temp
2018-Feb-19 14:34N 25°46' W 079°28'111.6
2018-Feb-19 14:28N 25°47' W 079°28'511.4
2018-Feb-19 14:00N 25°52' W 079°27'1411.2
2018-Feb-19 12:46N 26°06' W 079°25'611.5
2018-Feb-19 12:17N 26°12' W 079°24'34411.6
2018-Feb-18 06:39N 31°50' W 080°35'2 9.6
2018-Feb-18 06:27N 31°51' W 080°37'4 9.6
2018-Feb-18 06:00N 31°54' W 080°40'5 9.5
2018-Feb-18 05:30N 31°58' W 080°44'611.1
2018-Feb-18 05:00N 32°01' W 080°49'612.0
2018-Feb-18 04:30N 32°03' W 080°56'510.9
2018-Feb-18 04:00N 32°06' W 081°01'4 8.1
2018-Feb-18 03:30N 32°05' W 081°06'1 1.9
2018-Feb-18 02:55N 32°06' W 081°07'0 0.0
2018-Feb-18 02:25N 32°06' W 081°07'0 0.0
2018-Feb-18 01:55N 32°06' W 081°07'0 0.0
2018-Feb-18 01:25N 32°06' W 081°07'0 0.0
2018-Feb-18 00:55N 32°06' W 081°07'0 0.0
2018-Feb-18 00:25N 32°06' W 081°07'0 0.0
2018-Feb-17 23:55N 32°06' W 081°07'0 0.0
2018-Feb-17 23:25N 32°06' W 081°07'0 0.0
2018-Feb-17 22:55N 32°06' W 081°07'0 0.0
2018-Feb-17 22:25N 32°06' W 081°07'0 0.0
2018-Feb-17 21:55N 32°06' W 081°07'0 0.0
2018-Feb-17 21:25N 32°06' W 081°07'0 0.0
2018-Feb-17 20:55N 32°06' W 081°07'0 0.0
2018-Feb-17 20:25N 32°06' W 081°07'0 0.0
2018-Feb-17 19:55N 32°06' W 081°07'0 0.0
2018-Feb-17 19:25N 32°06' W 081°07'0 0.0
2018-Feb-17 18:49N 32°06' W 081°07'0 0.0
2018-Feb-17 18:19N 32°06' W 081°07'0 0.0
2018-Feb-17 17:55N 32°06' W 081°07'0 0.0
2018-Feb-17 17:25N 32°06' W 081°07'0 0.0
2018-Feb-17 16:55N 32°06' W 081°07'0 0.0
2018-Feb-17 16:30N 32°06' W 081°07'1 1.1
2018-Feb-17 16:00N 32°06' W 081°07'0 0.4
2018-Feb-17 15:30N 32°06' W 081°07'0 0.0
2018-Feb-17 15:00N 32°06' W 081°07'0 0.0
2018-Feb-17 14:30N 32°06' W 081°07'0 0.0
2018-Feb-17 14:00N 32°06' W 081°07'0 0.0
2018-Feb-17 13:30N 32°06' W 081°07'0 0.0
2018-Feb-17 13:00N 32°06' W 081°07'0 0.0
2018-Feb-17 12:30N 32°06' W 081°07'0 0.0
2018-Feb-17 12:00N 32°06' W 081°07'0 0.0
2018-Feb-17 11:30N 32°06' W 081°07'0 0.0
2018-Feb-17 11:00N 32°06' W 081°07'0 0.0
2018-Feb-17 10:30N 32°06' W 081°07'0 0.0
2018-Feb-17 10:00N 32°06' W 081°07'0 0.0
2018-Feb-17 09:30N 32°06' W 081°07'0 0.0
2018-Feb-17 08:59N 32°06' W 081°07'0 0.0
2018-Feb-17 08:30N 32°06' W 081°07'0 0.0
2018-Feb-17 08:00N 32°06' W 081°07'0 0.0
2018-Feb-17 07:30N 32°06' W 081°07'1 1.9
2018-Feb-17 07:00N 32°05' W 081°06'4 7.3
2018-Feb-17 06:30N 32°05' W 081°02'3 6.6
2018-Feb-17 06:00N 32°04' W 080°58'4 8.3
2018-Feb-17 05:30N 32°02' W 080°54'4 8.5
2018-Feb-17 05:00N 32°02' W 080°49'510.2
2018-Feb-17 04:30N 31°58' W 080°44'510.3
2018-Feb-17 04:00N 31°56' W 080°39'5 9.4
2018-Feb-17 03:30N 31°55' W 080°34'5 8.9
2018-Feb-17 02:58N 31°56' W 080°28'  
2018-Feb-14 12:11N 39°36' W 073°51'4211.3
2018-Feb-14 08:28N 40°18' W 073°49'5 9.1
2018-Feb-14 07:58N 40°23' W 073°49'4 8.5
2018-Feb-14 07:29N 40°27' W 073°50'4 7.6
2018-Feb-14 07:00N 40°29' W 073°54'510.2
2018-Feb-14 06:30N 40°31' W 074°00'510.8
2018-Feb-14 06:00N 40°36' W 074°03'3 6.8
2018-Feb-14 05:30N 40°39' W 074°05'0 0.0
2018-Feb-13 18:31N 40°39' W 074°05'0 0.0
2018-Feb-13 18:19N 40°39' W 074°05'0 0.0
2018-Feb-13 17:01N 40°39' W 074°05'0 0.0
2018-Feb-13 16:58N 40°39' W 074°05'0 0.0
2018-Feb-13 16:16N 40°39' W 074°05'0 0.0
2018-Feb-13 15:55N 40°39' W 074°05'0 0.0
2018-Feb-13 15:28N 40°39' W 074°05'0 0.0
2018-Feb-13 14:58N 40°39' W 074°05'0 0.0
2018-Feb-13 14:22N 40°39' W 074°05'0 0.0
2018-Feb-13 13:58N 40°39' W 074°05'0 0.0
2018-Feb-13 13:28N 40°39' W 074°05'0 0.0
2018-Feb-13 12:55N 40°39' W 074°05'0 0.0
2018-Feb-13 12:16N 40°39' W 074°05'0 0.0
2018-Feb-13 11:58N 40°39' W 074°05'0 0.2
2018-Feb-13 11:28N 40°39' W 074°05'1 2.4
2018-Feb-13 11:00N 40°39' W 074°07'0 0.0
2018-Feb-13 07:15N 40°39' W 074°07'0 0.0
2018-Feb-13 05:09N 40°39' W 074°07'0 0.0
2018-Feb-13 02:33N 40°39' W 074°07'0 0.0
2018-Feb-13 02:15N 40°39' W 074°07'0 0.0
2018-Feb-13 01:57N 40°39' W 074°07'0 0.0
2018-Feb-13 00:33N 40°39' W 074°07'0 0.1
2018-Feb-13 00:27N 40°39' W 074°07'0 0.0
2018-Feb-12 23:51N 40°39' W 074°07'0 0.0
2018-Feb-12 18:42N 40°39' W 074°07'0 0.0
2018-Feb-12 18:09N 40°39' W 074°07'0 0.0
2018-Feb-12 17:51N 40°39' W 074°07'0 0.0
2018-Feb-12 17:30N 40°39' W 074°07'0 0.4
2018-Feb-12 17:00N 40°39' W 074°06'2 3.5
2018-Feb-12 16:31N 40°39' W 074°04'3 6.9
2018-Feb-12 16:00N 40°36' W 074°02'5 9.1
2018-Feb-12 15:30N 40°31' W 074°00'5 8.9
2018-Feb-12 15:00N 40°29' W 073°55'5 9.8
2018-Feb-12 14:30N 40°27' W 073°49'  
Track history (hours):
 
Tides and Currents Weather Stations Pressure Air Temp Water Temp Dewpoint Dewpoint Depression Visibility Wind Speed Wind Dir Waves Ship Positions

Chemical Hunter

Last reported at 2018-Feb-19 14:34 UTC. Time now 2018-Feb-24 06:22 UTC.
Position N 25°46' W 079°28'.

Length 134 m; draft 8.3 m.

Type: Ship (hazmat cat B). MMSI: 374026000.

Date/timePositionNaut miles runAvg speedWind from/ knotsBaromVisibWave heightAir tempDewpointWater temp
2018-Feb-19 14:34N 25°46' W 079°28'111.6
2018-Feb-19 14:28N 25°47' W 079°28'511.4
2018-Feb-19 14:00N 25°52' W 079°27'1411.2
2018-Feb-19 12:46N 26°06' W 079°25'611.5
2018-Feb-19 12:17N 26°12' W 079°24'34411.6
2018-Feb-18 06:39N 31°50' W 080°35'2 9.6
2018-Feb-18 06:27N 31°51' W 080°37'4 9.6
2018-Feb-18 06:00N 31°54' W 080°40'5 9.5
2018-Feb-18 05:30N 31°58' W 080°44'611.1
2018-Feb-18 05:00N 32°01' W 080°49'612.0
2018-Feb-18 04:30N 32°03' W 080°56'510.9
2018-Feb-18 04:00N 32°06' W 081°01'4 8.1
2018-Feb-18 03:30N 32°05' W 081°06'1 1.9
2018-Feb-18 02:55N 32°06' W 081°07'0 0.0
2018-Feb-18 02:25N 32°06' W 081°07'0 0.0
2018-Feb-18 01:55N 32°06' W 081°07'0 0.0
2018-Feb-18 01:25N 32°06' W 081°07'0 0.0
2018-Feb-18 00:55N 32°06' W 081°07'0 0.0
2018-Feb-18 00:25N 32°06' W 081°07'0 0.0
2018-Feb-17 23:55N 32°06' W 081°07'0 0.0
2018-Feb-17 23:25N 32°06' W 081°07'0 0.0
2018-Feb-17 22:55N 32°06' W 081°07'0 0.0
2018-Feb-17 22:25N 32°06' W 081°07'0 0.0
2018-Feb-17 21:55N 32°06' W 081°07'0 0.0
2018-Feb-17 21:25N 32°06' W 081°07'0 0.0
2018-Feb-17 20:55N 32°06' W 081°07'0 0.0
2018-Feb-17 20:25N 32°06' W 081°07'0 0.0
2018-Feb-17 19:55N 32°06' W 081°07'0 0.0
2018-Feb-17 19:25N 32°06' W 081°07'0 0.0
2018-Feb-17 18:49N 32°06' W 081°07'0 0.0
2018-Feb-17 18:19N 32°06' W 081°07'0 0.0
2018-Feb-17 17:55N 32°06' W 081°07'0 0.0
2018-Feb-17 17:25N 32°06' W 081°07'0 0.0
2018-Feb-17 16:55N 32°06' W 081°07'0 0.0
2018-Feb-17 16:30N 32°06' W 081°07'1 1.1
2018-Feb-17 16:00N 32°06' W 081°07'0 0.4
2018-Feb-17 15:30N 32°06' W 081°07'0 0.0
2018-Feb-17 15:00N 32°06' W 081°07'0 0.0
2018-Feb-17 14:30N 32°06' W 081°07'0 0.0
2018-Feb-17 14:00N 32°06' W 081°07'0 0.0
2018-Feb-17 13:30N 32°06' W 081°07'0 0.0
2018-Feb-17 13:00N 32°06' W 081°07'0 0.0
2018-Feb-17 12:30N 32°06' W 081°07'0 0.0
2018-Feb-17 12:00N 32°06' W 081°07'0 0.0
2018-Feb-17 11:30N 32°06' W 081°07'0 0.0
2018-Feb-17 11:00N 32°06' W 081°07'0 0.0
2018-Feb-17 10:30N 32°06' W 081°07'0 0.0
2018-Feb-17 10:00N 32°06' W 081°07'0 0.0
2018-Feb-17 09:30N 32°06' W 081°07'0 0.0
2018-Feb-17 08:59N 32°06' W 081°07'0 0.0
2018-Feb-17 08:30N 32°06' W 081°07'0 0.0
2018-Feb-17 08:00N 32°06' W 081°07'0 0.0
2018-Feb-17 07:30N 32°06' W 081°07'1 1.9
2018-Feb-17 07:00N 32°05' W 081°06'4 7.3
2018-Feb-17 06:30N 32°05' W 081°02'3 6.6
2018-Feb-17 06:00N 32°04' W 080°58'4 8.3
2018-Feb-17 05:30N 32°02' W 080°54'4 8.5
2018-Feb-17 05:00N 32°02' W 080°49'510.2
2018-Feb-17 04:30N 31°58' W 080°44'510.3
2018-Feb-17 04:00N 31°56' W 080°39'5 9.4
2018-Feb-17 03:30N 31°55' W 080°34'5 8.9
2018-Feb-17 02:58N 31°56' W 080°28'  
2018-Feb-14 12:11N 39°36' W 073°51'4211.3
2018-Feb-14 08:28N 40°18' W 073°49'5 9.1
2018-Feb-14 07:58N 40°23' W 073°49'4 8.5
2018-Feb-14 07:29N 40°27' W 073°50'4 7.6
2018-Feb-14 07:00N 40°29' W 073°54'510.2
2018-Feb-14 06:30N 40°31' W 074°00'510.8
2018-Feb-14 06:00N 40°36' W 074°03'3 6.8
2018-Feb-14 05:30N 40°39' W 074°05'0 0.0
2018-Feb-13 18:31N 40°39' W 074°05'0 0.0
2018-Feb-13 18:19N 40°39' W 074°05'0 0.0
2018-Feb-13 17:01N 40°39' W 074°05'0 0.0
2018-Feb-13 16:58N 40°39' W 074°05'0 0.0
2018-Feb-13 16:16N 40°39' W 074°05'0 0.0
2018-Feb-13 15:55N 40°39' W 074°05'0 0.0
2018-Feb-13 15:28N 40°39' W 074°05'0 0.0
2018-Feb-13 14:58N 40°39' W 074°05'0 0.0
2018-Feb-13 14:22N 40°39' W 074°05'0 0.0
2018-Feb-13 13:58N 40°39' W 074°05'0 0.0
2018-Feb-13 13:28N 40°39' W 074°05'0 0.0
2018-Feb-13 12:55N 40°39' W 074°05'0 0.0
2018-Feb-13 12:16N 40°39' W 074°05'0 0.0
2018-Feb-13 11:58N 40°39' W 074°05'0 0.2
2018-Feb-13 11:28N 40°39' W 074°05'1 2.4
2018-Feb-13 11:00N 40°39' W 074°07'0 0.0
2018-Feb-13 07:15N 40°39' W 074°07'0 0.0
2018-Feb-13 05:09N 40°39' W 074°07'0 0.0
2018-Feb-13 02:33N 40°39' W 074°07'0 0.0
2018-Feb-13 02:15N 40°39' W 074°07'0 0.0
2018-Feb-13 01:57N 40°39' W 074°07'0 0.0
2018-Feb-13 00:33N 40°39' W 074°07'0 0.1
2018-Feb-13 00:27N 40°39' W 074°07'0 0.0
2018-Feb-12 23:51N 40°39' W 074°07'0 0.0
2018-Feb-12 18:42N 40°39' W 074°07'0 0.0
2018-Feb-12 18:09N 40°39' W 074°07'0 0.0
2018-Feb-12 17:51N 40°39' W 074°07'0 0.0
2018-Feb-12 17:30N 40°39' W 074°07'0 0.4
2018-Feb-12 17:00N 40°39' W 074°06'2 3.5
2018-Feb-12 16:31N 40°39' W 074°04'3 6.9
2018-Feb-12 16:00N 40°36' W 074°02'5 9.1
2018-Feb-12 15:30N 40°31' W 074°00'5 8.9
2018-Feb-12 15:00N 40°29' W 073°55'5 9.8
2018-Feb-12 14:30N 40°27' W 073°49'  

Dump ship's entire track history